Terminal Aerodrome Forecast
Issued by NWS

Current Version | Previous Version | Graphics & Text | Print | Product List | Glossary On
Versions: 1 2 3 4 5 6 7 8 9 10 11 12 13 14 15 16 17 18 19 20
000
FTUS41 KILN 251722
TAFLCK
TAF
KLCK 251722Z 2518/2618 22008KT P6SM FEW040 SCT250
     FM260100 23004KT P6SM FEW080 SCT250
      TEMPO 2609/2613 5SM BR
     FM261600 24006KT P6SM VCSH BKN040=

USA.gov is the U.S. government's official web portal to all federal, state and local government web resources and services.